createdAt,value
2018-03-02T00:00:14.609Z,23.00
2018-03-02T00:02:46.036Z,28.50
2018-03-02T00:05:17.498Z,29.50
2018-03-02T00:07:48.736Z,24.00
2018-03-02T00:10:31.574Z,27.00
2018-03-02T00:13:05.703Z,25.00
2018-03-02T00:15:38.801Z,24.50
2018-03-02T00:18:10.239Z,28.00
2018-03-02T00:20:41.464Z,27.50
2018-03-02T00:23:16.761Z,28.00
2018-03-02T00:25:48.031Z,25.00
2018-03-02T00:28:20.247Z,20.50
2018-03-02T00:30:54.159Z,24.50
2018-03-02T00:33:25.172Z,25.00
2018-03-02T00:35:56.736Z,24.00
2018-03-02T00:38:28.838Z,24.50
2018-03-02T00:41:00.627Z,23.50
2018-03-02T00:43:36.141Z,23.50
2018-03-02T00:46:09.618Z,23.00
2018-03-02T00:48:41.657Z,26.50
2018-03-02T00:51:13.390Z,22.50
2018-03-02T00:53:45.489Z,24.50
2018-03-02T00:56:17.705Z,24.50
2018-03-02T00:58:49.310Z,23.50
2018-03-02T01:01:22.090Z,27.50
2018-03-02T01:03:54.171Z,34.50
2018-03-02T01:06:32.030Z,24.50
2018-03-02T01:09:04.274Z,21.00
2018-03-02T01:11:36.068Z,23.50
2018-03-02T01:14:08.136Z,27.00
2018-03-02T01:17:24.661Z,24.00
2018-03-02T01:20:00.987Z,24.00
2018-03-02T01:22:32.690Z,24.00
2018-03-02T01:25:05.080Z,22.00
2018-03-02T01:27:36.451Z,25.50
2018-03-02T01:30:10.089Z,27.50
2018-03-02T01:32:44.457Z,29.50
2018-03-02T01:35:16.157Z,28.00
2018-03-02T01:37:47.389Z,27.50
2018-03-02T01:40:19.222Z,23.00
2018-03-02T01:42:50.778Z,24.00
2018-03-02T01:45:23.485Z,26.00
2018-03-02T01:47:57.009Z,25.00
2018-03-02T01:50:30.539Z,25.50
2018-03-02T01:53:02.330Z,27.50
2018-03-02T01:55:34.736Z,25.50
2018-03-02T01:58:08.098Z,22.50
2018-03-02T02:00:41.198Z,28.00
2018-03-02T02:03:13.368Z,27.50
2018-03-02T02:05:57.972Z,26.50
2018-03-02T02:14:01.169Z,22.00
2018-03-02T02:16:36.388Z,24.00
2018-03-02T02:19:09.474Z,24.00
2018-03-02T02:21:41.239Z,24.00
2018-03-02T02:24:12.708Z,29.50
2018-03-02T02:26:44.772Z,25.50
2018-03-02T02:29:16.079Z,27.00
2018-03-02T02:31:47.889Z,30.00
2018-03-02T02:34:19.025Z,26.00
2018-03-02T02:36:49.976Z,26.00
2018-03-02T02:41:56.600Z,23.50
2018-03-02T02:44:29.079Z,22.00
2018-03-02T02:47:00.417Z,29.50
2018-03-02T02:49:31.203Z,28.00
2018-03-02T02:52:02.274Z,34.00
2018-03-02T02:54:33.249Z,21.50
2018-03-02T02:57:04.283Z,26.00
2018-03-02T02:59:42.455Z,26.00
2018-03-02T03:02:13.911Z,26.00
2018-03-02T03:04:45.175Z,29.00
2018-03-02T03:07:16.574Z,30.00
2018-03-02T03:10:01.134Z,22.50
2018-03-02T03:12:42.844Z,27.00
2018-03-02T03:15:21.517Z,26.00
2018-03-02T03:17:53.402Z,24.50
2018-03-02T03:20:24.502Z,33.00
2018-03-02T03:22:55.724Z,24.00
2018-03-02T03:28:08.962Z,24.00
2018-03-02T03:30:40.820Z,28.00
2018-03-02T03:33:11.913Z,28.50
2018-03-02T03:35:44.041Z,21.50
2018-03-02T03:38:15.201Z,22.50
2018-03-02T03:40:46.647Z,27.50
2018-03-02T03:43:21.498Z,21.50
2018-03-02T03:45:52.203Z,25.50
2018-03-02T03:48:22.924Z,30.50
2018-03-02T03:50:55.418Z,30.00
2018-03-02T03:56:09.088Z,25.00
2018-03-02T03:58:40.141Z,29.00
2018-03-02T04:01:11.580Z,27.50
2018-03-02T04:03:42.657Z,24.00
2018-03-02T04:06:14.450Z,30.50
2018-03-02T04:08:46.145Z,32.00
2018-03-02T04:11:18.084Z,29.00
2018-03-02T04:13:49.426Z,30.00
2018-03-02T04:16:26.682Z,25.00
2018-03-02T04:18:57.699Z,29.50
2018-03-02T04:21:29.381Z,29.50
2018-03-02T04:24:00.072Z,32.50
2018-03-02T04:26:46.283Z,29.50
2018-03-02T04:29:16.822Z,29.00
2018-03-02T04:31:47.472Z,35.00
2018-03-02T04:34:18.276Z,31.00
2018-03-02T04:36:48.799Z,29.00
2018-03-02T04:39:24.281Z,28.50
2018-03-02T04:41:55.007Z,24.50
2018-03-02T04:44:25.960Z,26.50
2018-03-02T04:47:02.316Z,33.00
2018-03-02T04:49:36.309Z,30.50
2018-03-02T04:52:10.280Z,32.00
2018-03-02T04:54:41.031Z,25.00
2018-03-02T04:57:11.947Z,26.50
2018-03-02T04:59:42.823Z,30.00
2018-03-02T05:02:14.317Z,22.00
2018-03-02T05:04:45.315Z,29.00
2018-03-02T05:07:18.473Z,29.50
2018-03-02T05:12:26.402Z,25.50
2018-03-02T05:15:01.172Z,33.50
2018-03-02T05:17:34.700Z,24.00
2018-03-02T05:20:06.313Z,30.00
2018-03-02T05:22:43.500Z,26.00
2018-03-02T05:25:15.268Z,27.50
2018-03-02T05:27:46.309Z,29.00
2018-03-02T05:30:24.141Z,27.00
2018-03-02T05:32:55.925Z,30.00
2018-03-02T05:35:39.781Z,27.00
2018-03-02T05:38:16.730Z,28.00
2018-03-02T05:41:03.793Z,31.50
2018-03-02T05:43:35.672Z,30.50
2018-03-02T05:46:11.783Z,32.50
2018-03-02T05:48:44.101Z,26.50
2018-03-02T05:51:16.713Z,32.00
2018-03-02T05:53:47.980Z,29.00
2018-03-02T05:56:19.554Z,31.00
2018-03-02T05:58:51.440Z,37.00
2018-03-02T06:01:33.293Z,40.50
2018-03-02T06:04:05.676Z,31.50
2018-03-02T06:06:37.929Z,32.50
2018-03-02T06:09:15.085Z,32.00
2018-03-02T06:11:55.369Z,38.50
2018-03-02T06:14:26.617Z,34.00
2018-03-02T06:16:58.250Z,28.00
2018-03-02T06:19:29.492Z,35.50
2018-03-02T06:22:06.603Z,30.00
2018-03-02T06:24:38.604Z,32.00
2018-03-02T06:27:17.535Z,32.50
2018-03-02T06:29:49.871Z,39.00
2018-03-02T06:32:23.250Z,38.50
2018-03-02T06:34:56.168Z,35.00
2018-03-02T06:37:28.012Z,29.00
2018-03-02T06:39:59.387Z,34.00
2018-03-02T06:42:32.524Z,33.00
2018-03-02T06:45:20.471Z,35.50
2018-03-02T06:47:58.021Z,31.00
2018-03-02T06:50:29.922Z,32.00
2018-03-02T06:53:10.725Z,36.00
2018-03-02T06:58:26.438Z,35.50
2018-03-02T07:00:58.527Z,30.00
2018-03-02T07:03:31.238Z,41.00
2018-03-02T07:06:02.922Z,27.50
2018-03-02T07:08:34.976Z,33.00
2018-03-02T07:11:09.128Z,25.00
2018-03-02T07:13:41.875Z,40.00
2018-03-02T07:16:21.593Z,29.50
2018-03-02T07:18:53.943Z,37.50
2018-03-02T07:21:28.536Z,40.00
2018-03-02T07:24:00.786Z,35.50
2018-03-02T07:29:30.760Z,32.00
2018-03-02T07:32:07.617Z,37.50
2018-03-02T07:34:39.449Z,31.50
2018-03-02T07:37:22.207Z,34.50
2018-03-02T07:39:54.015Z,37.50
2018-03-02T07:42:27.967Z,41.50
2018-03-02T07:47:50.377Z,31.00
2018-03-02T07:50:24.518Z,30.50
2018-03-02T07:52:57.420Z,25.50
2018-03-02T07:55:30.896Z,35.00
2018-03-02T07:58:09.338Z,36.00
2018-03-02T08:00:41.261Z,39.50
2018-03-02T08:03:17.378Z,35.00
2018-03-02T08:05:51.784Z,28.50
2018-03-02T08:08:24.049Z,37.00
2018-03-02T08:10:55.248Z,35.50
2018-03-02T08:13:31.427Z,32.00
2018-03-02T08:19:27.681Z,34.50
2018-03-02T08:22:01.068Z,34.50
2018-03-02T08:24:36.849Z,39.00
2018-03-02T08:27:09.336Z,32.00
2018-03-02T08:32:19.408Z,39.50
2018-03-02T08:34:51.419Z,33.50
2018-03-02T08:37:28.813Z,40.00
2018-03-02T08:40:08.595Z,38.00
2018-03-02T08:45:51.290Z,34.00
2018-03-02T08:48:22.849Z,41.00
2018-03-02T08:50:57.033Z,32.50
2018-03-02T08:53:32.586Z,36.50
2018-03-02T08:56:06.505Z,40.00
2018-03-02T08:58:38.419Z,41.50
2018-03-02T09:01:13.200Z,35.50
2018-03-02T09:03:46.092Z,40.50
2018-03-02T09:06:22.265Z,45.50
2018-03-02T09:08:55.235Z,40.00
2018-03-02T09:11:27.114Z,41.50
2018-03-02T09:14:00.807Z,33.00
2018-03-02T09:16:32.924Z,34.50
2018-03-02T09:19:04.859Z,42.00
2018-03-02T09:21:39.575Z,40.00
2018-03-02T09:24:15.639Z,35.00
2018-03-02T09:26:47.260Z,40.00
2018-03-02T09:29:28.599Z,41.50
2018-03-02T09:32:00.206Z,43.50
2018-03-02T09:34:35.003Z,41.50
2018-03-02T09:37:25.082Z,40.50
2018-03-02T09:39:57.894Z,41.00
2018-03-02T09:42:29.779Z,41.50
2018-03-02T09:45:03.790Z,42.50
2018-03-02T09:47:36.025Z,42.50
2018-03-02T09:50:07.601Z,39.50
2018-03-02T09:52:40.861Z,43.00
2018-03-02T09:55:12.345Z,41.00
2018-03-02T09:57:43.347Z,40.00
2018-03-02T10:00:20.905Z,43.50
2018-03-02T10:02:54.009Z,40.00
2018-03-02T10:05:36.100Z,41.50
2018-03-02T10:08:19.054Z,40.00
2018-03-02T10:10:50.593Z,43.00
2018-03-02T10:13:23.320Z,40.50
2018-03-02T10:15:55.771Z,40.50
2018-03-02T10:18:27.469Z,48.50
2018-03-02T10:21:01.485Z,44.00
2018-03-02T10:23:34.686Z,36.50
2018-03-02T10:26:06.207Z,44.50
2018-03-02T10:28:37.636Z,27.00
2018-03-02T10:31:10.539Z,47.00
2018-03-02T10:33:42.063Z,39.50
2018-03-02T10:36:13.391Z,40.50
2018-03-02T10:38:44.917Z,36.00
2018-03-02T10:41:16.772Z,44.00
2018-03-02T10:43:49.153Z,44.00
2018-03-02T10:46:22.454Z,44.00
2018-03-02T10:49:04.501Z,40.00
2018-03-02T10:51:36.324Z,44.00
2018-03-02T10:54:09.329Z,41.00
2018-03-02T10:56:42.087Z,43.50
2018-03-02T10:59:14.418Z,47.50
2018-03-02T11:01:55.857Z,40.50
2018-03-02T11:04:33.286Z,37.50
2018-03-02T11:07:06.142Z,43.50
2018-03-02T11:12:14.279Z,35.50
2018-03-02T11:14:53.684Z,45.00
2018-03-02T11:17:26.746Z,38.00
2018-03-02T11:19:57.531Z,44.00
2018-03-02T11:22:31.970Z,45.50
2018-03-02T11:25:06.913Z,43.00
2018-03-02T11:27:51.280Z,40.00
2018-03-02T11:30:28.120Z,43.00
2018-03-02T11:33:02.181Z,44.50
2018-03-02T11:35:36.986Z,39.00
2018-03-02T11:38:09.334Z,46.00
2018-03-02T11:40:40.312Z,43.75
2018-03-02T11:43:11.629Z,44.75
2018-03-02T11:45:45.486Z,44.25
2018-03-02T11:48:17.345Z,35.50
2018-03-02T11:50:59.374Z,44.00
2018-03-02T11:53:30.655Z,40.25
2018-03-02T11:56:03.610Z,36.25
2018-03-02T11:58:36.573Z,45.50
2018-03-02T12:01:08.638Z,44.25
2018-03-02T12:03:41.254Z,43.75
2018-03-02T12:06:23.892Z,43.75
2018-03-02T12:09:00.735Z,43.50
2018-03-02T12:11:36.015Z,44.00
2018-03-02T12:14:07.182Z,48.25
2018-03-02T12:16:39.276Z,41.75
2018-03-02T12:19:14.245Z,38.75
2018-03-02T12:21:47.440Z,42.25
2018-03-02T12:24:19.704Z,44.25
2018-03-02T12:26:52.508Z,44.25
2018-03-02T12:29:42.543Z,43.25
2018-03-02T12:32:22.174Z,44.25
2018-03-02T12:34:55.857Z,44.75
2018-03-02T12:37:35.028Z,41.75
2018-03-02T12:40:08.048Z,41.75
2018-03-02T12:42:39.623Z,43.00
2018-03-02T12:45:17.342Z,41.75
2018-03-02T12:47:49.167Z,42.75
2018-03-02T12:50:21.273Z,49.50
2018-03-02T12:52:54.717Z,42.00
2018-03-02T12:55:31.824Z,43.50
2018-03-02T12:58:08.582Z,43.75
2018-03-02T13:00:45.854Z,44.75
2018-03-02T13:03:17.802Z,39.75
2018-03-02T13:05:48.996Z,41.25
2018-03-02T13:08:30.374Z,38.75
2018-03-02T13:11:01.686Z,41.25
2018-03-02T13:13:37.006Z,41.75
2018-03-02T13:16:09.315Z,41.75
2018-03-02T13:21:09.880Z,41.25
2018-03-02T13:23:41.229Z,38.75
2018-03-02T13:26:18.625Z,40.75
2018-03-02T13:28:53.046Z,44.50
2018-03-02T13:31:31.479Z,40.75
2018-03-02T13:34:13.901Z,40.75
2018-03-02T13:36:45.624Z,40.75
2018-03-02T13:39:21.081Z,39.75
2018-03-02T13:42:11.402Z,40.75
2018-03-02T13:44:43.548Z,42.25
2018-03-02T13:47:30.920Z,40.75
2018-03-02T13:50:09.922Z,42.75
2018-03-02T13:52:41.335Z,43.25
2018-03-02T13:55:13.704Z,41.75
2018-03-02T13:57:55.603Z,42.00
2018-03-02T14:00:30.437Z,39.25
2018-03-02T14:03:28.252Z,43.50
2018-03-02T14:06:06.943Z,41.75
2018-03-02T14:08:43.137Z,40.75
2018-03-02T14:11:29.054Z,45.50
2018-03-02T14:14:02.448Z,40.75
2018-03-02T14:16:35.852Z,47.50
2018-03-02T14:19:08.016Z,40.25
2018-03-02T14:21:39.972Z,41.75
2018-03-02T14:24:13.713Z,43.75
2018-03-02T14:26:45.506Z,39.00
2018-03-02T14:29:27.036Z,40.25
2018-03-02T14:34:48.801Z,42.75
2018-03-02T14:37:20.422Z,40.75
2018-03-02T14:42:52.441Z,41.25
2018-03-02T14:45:24.836Z,42.25
2018-03-02T14:47:56.278Z,44.00
2018-03-02T14:50:27.451Z,42.75
2018-03-02T14:57:22.198Z,39.25
2018-03-02T14:59:53.443Z,41.75
2018-03-02T15:02:35.491Z,42.75
2018-03-02T15:05:06.776Z,40.75
2018-03-02T15:07:47.195Z,41.25
2018-03-02T15:10:21.069Z,42.75
2018-03-02T15:12:54.167Z,40.25
2018-03-02T15:15:26.358Z,41.25
2018-03-02T15:18:03.531Z,43.75
2018-03-02T15:20:38.783Z,39.75
2018-03-02T15:23:10.219Z,43.25
2018-03-02T15:26:00.332Z,39.75
2018-03-02T15:28:41.237Z,36.75
2018-03-02T15:31:13.183Z,42.00
2018-03-02T15:33:48.849Z,38.25
2018-03-02T15:36:33.949Z,41.75
2018-03-02T15:39:06.967Z,40.75
2018-03-02T15:41:39.196Z,39.75
2018-03-02T15:49:57.613Z,39.75
2018-03-02T15:57:19.338Z,39.25
2018-03-02T16:02:34.986Z,39.75
2018-03-02T16:05:09.171Z,43.50
2018-03-02T16:07:58.291Z,41.50
2018-03-02T16:10:30.794Z,41.75
2018-03-02T16:13:11.080Z,41.75
2018-03-02T16:15:57.664Z,41.75
2018-03-02T16:18:48.167Z,43.75
2018-03-02T16:21:23.209Z,43.75
2018-03-02T16:24:04.898Z,40.00
2018-03-02T16:26:37.759Z,42.75
2018-03-02T16:29:09.687Z,39.25
2018-03-02T16:31:55.971Z,42.75
2018-03-02T16:34:41.580Z,41.50
2018-03-02T16:37:12.860Z,43.50
2018-03-02T16:39:45.525Z,41.25
2018-03-02T16:42:23.139Z,41.75
2018-03-02T16:44:58.430Z,41.75
2018-03-02T16:47:30.849Z,40.75
2018-03-02T16:50:02.202Z,42.25
2018-03-02T16:52:40.159Z,44.50
2018-03-02T16:55:11.832Z,44.00
2018-03-02T16:57:44.692Z,39.75
2018-03-02T17:00:19.930Z,41.25
2018-03-02T17:02:51.029Z,40.75
2018-03-02T17:05:30.993Z,41.75
2018-03-02T17:08:09.998Z,43.75
2018-03-02T17:10:45.244Z,41.75
2018-03-02T17:13:19.476Z,46.25
2018-03-02T17:15:59.005Z,37.75
2018-03-02T17:21:23.264Z,36.75
2018-03-02T17:24:02.087Z,39.75
2018-03-02T17:26:56.548Z,40.75
2018-03-02T17:29:27.739Z,40.25
2018-03-02T17:31:59.939Z,37.00
2018-03-02T17:34:43.089Z,39.75
2018-03-02T17:37:14.826Z,36.75
2018-03-02T17:39:46.076Z,36.75
2018-03-02T17:45:07.899Z,39.75
2018-03-02T17:47:40.320Z,39.75
2018-03-02T17:50:12.034Z,38.25
2018-03-02T17:52:48.989Z,39.75
2018-03-02T17:58:14.013Z,44.25
2018-03-02T18:00:45.856Z,40.75
2018-03-02T18:03:20.982Z,41.75
2018-03-02T18:05:52.682Z,43.75
2018-03-02T18:08:24.777Z,38.75
2018-03-02T18:10:59.873Z,39.25
2018-03-02T18:16:43.018Z,40.25
2018-03-02T18:19:23.992Z,40.25
2018-03-02T18:22:02.779Z,39.75
2018-03-02T18:24:38.069Z,42.75
2018-03-02T18:27:10.164Z,44.00
2018-03-02T18:29:54.051Z,41.25
2018-03-02T18:32:25.694Z,38.75
2018-03-02T18:34:57.592Z,42.75
2018-03-02T18:37:30.630Z,38.25
2018-03-02T18:40:11.172Z,41.75
2018-03-02T18:42:43.847Z,41.75
2018-03-02T18:51:18.548Z,39.50
2018-03-02T18:59:18.911Z,43.25
2018-03-02T19:01:52.890Z,41.25
2018-03-02T19:04:23.898Z,44.00
2018-03-02T19:06:55.501Z,43.25
2018-03-02T19:09:28.212Z,39.50
2018-03-02T19:12:09.386Z,43.50
2018-03-02T19:14:42.374Z,42.75
2018-03-02T19:17:36.940Z,44.25
2018-03-02T19:20:09.517Z,41.50
2018-03-02T19:22:41.711Z,41.25
2018-03-02T19:28:02.081Z,42.75
2018-03-02T19:30:35.929Z,40.50
2018-03-02T19:33:09.658Z,43.75
2018-03-02T19:35:47.555Z,42.50
2018-03-02T19:38:25.654Z,39.75
2018-03-02T19:41:04.856Z,39.25
2018-03-02T19:43:40.187Z,42.75
2018-03-02T19:46:15.262Z,45.00
2018-03-02T19:48:51.195Z,44.50
2018-03-02T19:51:24.614Z,41.75
2018-03-02T19:53:57.748Z,44.25
2018-03-02T19:56:29.050Z,48.75
2018-03-02T19:59:00.973Z,49.75
2018-03-02T20:01:38.617Z,46.00
2018-03-02T20:04:09.950Z,45.00
2018-03-02T20:06:50.084Z,43.75
2018-03-02T20:09:24.154Z,47.00
2018-03-02T20:11:56.843Z,48.25
2018-03-02T20:14:28.605Z,46.50
2018-03-02T20:17:10.263Z,38.75
2018-03-02T20:19:49.458Z,45.25
2018-03-02T20:22:30.411Z,44.50
2018-03-02T20:25:02.905Z,41.25
2018-03-02T20:27:49.475Z,47.50
2018-03-02T20:30:26.340Z,42.75
2018-03-02T20:32:58.950Z,48.25
2018-03-02T20:35:30.588Z,48.25
2018-03-02T20:38:02.081Z,49.00
2018-03-02T20:40:35.340Z,48.25
2018-03-02T20:43:08.069Z,47.50
2018-03-02T20:52:28.126Z,47.50
2018-03-02T20:55:24.609Z,50.25
2018-03-02T20:58:00.876Z,45.75
2018-03-02T21:00:39.281Z,48.75
2018-03-02T21:03:38.439Z,43.75
2018-03-02T21:06:10.353Z,47.75
2018-03-02T21:08:44.158Z,49.25
2018-03-02T21:11:24.441Z,48.00
2018-03-02T21:14:04.765Z,51.75
2018-03-02T21:16:37.658Z,49.25
2018-03-02T21:19:12.776Z,49.00
2018-03-02T21:21:43.742Z,51.75
2018-03-02T21:24:18.321Z,48.25
2018-03-02T21:26:49.308Z,53.75
2018-03-02T21:29:20.827Z,50.50
2018-03-02T21:31:53.854Z,48.50
2018-03-02T21:37:34.786Z,48.00
2018-03-02T21:40:06.408Z,52.00
2018-03-02T21:42:41.621Z,53.00
2018-03-02T21:45:55.747Z,49.00
2018-03-02T21:48:27.645Z,52.00
2018-03-02T21:51:24.980Z,53.00
2018-03-02T21:53:57.133Z,51.00
2018-03-02T21:56:29.660Z,48.50
2018-03-02T21:59:02.015Z,48.00
2018-03-02T22:01:33.806Z,49.50
2018-03-02T22:04:05.115Z,54.00
2018-03-02T22:06:36.650Z,51.50
2018-03-02T22:09:10.285Z,52.00
2018-03-02T22:11:51.127Z,51.00
2018-03-02T22:14:22.734Z,47.50
2018-03-02T22:16:54.304Z,52.00
2018-03-02T22:19:26.418Z,52.00
2018-03-02T22:21:58.063Z,49.00
2018-03-02T22:24:30.205Z,48.00
2018-03-02T22:27:01.311Z,52.50
2018-03-02T22:29:33.369Z,52.00
2018-03-02T22:32:04.774Z,49.50
2018-03-02T22:34:36.910Z,47.50
2018-03-02T22:37:09.697Z,51.50
2018-03-02T22:39:40.949Z,48.00
2018-03-02T22:42:12.315Z,47.50
2018-03-02T22:44:43.468Z,50.00
2018-03-02T22:47:16.266Z,51.00
2018-03-02T22:49:49.526Z,51.50
2018-03-02T22:52:22.153Z,49.50
2018-03-02T22:54:57.886Z,51.50
2018-03-02T22:57:28.787Z,52.50
2018-03-02T23:00:00.339Z,52.00
2018-03-02T23:02:32.307Z,50.00
2018-03-02T23:05:09.278Z,49.00
2018-03-02T23:07:40.489Z,52.50
2018-03-02T23:10:11.372Z,50.00
2018-03-02T23:12:42.249Z,53.50
2018-03-02T23:15:18.276Z,50.00
2018-03-02T23:17:52.551Z,52.00
2018-03-02T23:20:23.978Z,48.00
2018-03-02T23:22:55.405Z,55.00
2018-03-02T23:25:30.509Z,52.00
2018-03-02T23:28:02.606Z,51.00
2018-03-02T23:30:33.874Z,53.00
2018-03-02T23:33:06.161Z,53.00
2018-03-02T23:36:07.985Z,53.50
2018-03-02T23:38:39.156Z,49.00
2018-03-02T23:41:10.444Z,53.50
2018-03-02T23:43:41.636Z,52.00
2018-03-02T23:46:20.281Z,52.00
2018-03-02T23:48:51.276Z,51.00
2018-03-02T23:51:22.505Z,51.00
2018-03-02T23:53:53.901Z,56.00
2018-03-02T23:56:27.412Z,49.50
2018-03-02T23:58:58.604Z,47.50
